Time;durP1;ratioP1;P1;durP2;ratioP2;P2;SDS_P1;SDS_P2;PMS_P1;PMS_P2;Temp;Humidity;BMP_temperature;BMP_pressure;BME280_temperature;BME280_humidity;BME280_pressure;Samples;Min_cycle;Max_cycle;Signal;HPM_P1;HPM_P2
2022/05/15 00:02:04;;;;;;;8.38;3.70;;;;;;;13.20;72.65;98373.91;5436850;26;20111;-78
2022/05/15 00:04:31;;;;;;;10.90;4.10;;;;;;;13.50;71.78;98380.16;5437329;26;20047;-78
2022/05/15 00:06:58;;;;;;;8.82;3.58;;;;;;;13.68;71.16;98380.19;5437279;26;20134;-78
2022/05/15 00:09:25;;;;;;;13.10;4.18;;;;;;;13.08;73.30;98367.53;5436786;26;20114;-78
2022/05/15 00:11:53;;;;;;;7.47;3.90;;;;;;;13.60;71.75;98375.38;5437275;26;20110;-78
2022/05/15 00:14:20;;;;;;;9.35;4.20;;;;;;;13.09;73.54;98365.78;5437304;26;20058;-78
2022/05/15 00:16:47;;;;;;;8.90;4.03;;;;;;;13.21;73.08;98366.06;5436773;26;20427;-78
2022/05/15 00:19:14;;;;;;;9.73;3.92;;;;;;;13.68;71.32;98372.41;5436865;26;20085;-78
2022/05/15 00:21:41;;;;;;;10.77;3.97;;;;;;;13.90;69.85;98373.00;5437245;26;20059;-78
2022/05/15 00:24:08;;;;;;;8.25;3.90;;;;;;;13.92;69.38;98367.72;5436794;26;20049;-78
2022/05/15 00:26:35;;;;;;;8.75;3.72;;;;;;;13.79;69.83;98364.94;5416751;26;20133;-78
2022/05/15 00:29:02;;;;;;;8.50;3.70;;;;;;;13.44;70.94;98361.50;5437190;26;20059;-78
2022/05/15 00:31:29;;;;;;;9.73;3.90;;;;;;;13.62;70.58;98364.94;5436804;26;20059;-78
2022/05/15 00:33:56;;;;;;;8.65;3.95;;;;;;;13.47;70.63;98367.38;5437328;26;20118;-78
2022/05/15 00:36:24;;;;;;;11.27;4.12;;;;;;;13.08;72.30;98364.94;5437321;26;20063;-78
2022/05/15 00:38:51;;;;;;;8.30;3.80;;;;;;;13.18;72.23;98362.72;5436743;26;20122;-78
2022/05/15 00:41:17;;;;;;;7.82;3.55;;;;;;;13.22;71.99;98366.91;5437084;26;20744;-78
2022/05/15 00:43:48;;;;;;;7.90;3.80;;;;;;;13.55;70.87;98370.44;5437208;26;20095;-78
2022/05/15 00:46:23;;;;;;;9.85;3.80;;;;;;;13.26;71.71;98368.41;5437316;26;20367;-78
2022/05/15 00:48:51;;;;;;;8.85;3.80;;;;;;;13.21;72.09;98366.06;5437242;26;20413;-78
2022/05/15 00:51:32;;;;;;;9.18;4.00;;;;;;;13.44;70.69;98361.50;5436773;26;20461;-78
2022/05/15 00:54:26;;;;;;;9.18;3.70;;;;;;;13.57;70.35;98362.56;5417032;26;20106;-78
2022/05/15 00:57:03;;;;;;;7.40;3.55;;;;;;;13.48;70.67;98363.84;5437178;26;20058;-78
2022/05/15 00:59:34;;;;;;;8.82;3.60;;;;;;;13.55;70.60;98362.66;5397501;26;20122;-78
2022/05/15 01:02:01;;;;;;;9.02;4.20;;;;;;;12.90;73.14;98360.63;5416782;26;20794;-78
2022/05/15 01:04:28;;;;;;;8.93;3.95;;;;;;;13.04;72.92;98358.22;5437109;26;20043;-78
2022/05/15 01:06:55;;;;;;;8.90;4.10;;;;;;;13.51;71.14;98361.13;5436522;26;20106;-78
2022/05/15 01:09:22;;;;;;;9.77;4.15;;;;;;;13.31;72.19;98362.13;5436823;26;20073;-78
2022/05/15 01:11:49;;;;;;;9.48;3.85;;;;;;;12.91;73.56;98357.97;5436848;26;20039;-78
2022/05/15 01:14:18;;;;;;;11.00;4.15;;;;;;;13.22;72.63;98362.56;5437068;26;20102;-78
2022/05/15 01:16:45;;;;;;;9.82;3.70;;;;;;;12.69;74.37;98357.28;5416649;26;20088;-78
2022/05/15 01:19:12;;;;;;;7.95;3.40;;;;;;;13.17;72.56;98358.47;5436208;26;20420;-78
2022/05/15 01:21:51;;;;;;;10.95;4.25;;;;;;;12.93;73.55;98350.94;5437082;26;20107;-78
2022/05/15 01:24:18;;;;;;;7.82;3.50;;;;;;;13.10;73.20;98355.34;5437176;26;20415;-78
2022/05/15 01:26:45;;;;;;;8.25;3.83;;;;;;;13.02;73.17;98344.50;5436535;26;20089;-78
2022/05/15 01:29:12;;;;;;;9.45;3.90;;;;;;;13.28;72.20;98348.44;5436701;26;20114;-78
2022/05/15 01:31:39;;;;;;;10.00;4.28;;;;;;;12.84;73.54;98347.97;5436778;26;20081;-78
2022/05/15 01:34:07;;;;;;;9.55;3.92;;;;;;;13.08;73.07;98352.00;5436628;26;20104;-78
2022/05/15 01:36:35;;;;;;;9.32;3.85;;;;;;;13.24;72.13;98352.13;5437009;26;20109;-78
2022/05/15 01:39:04;;;;;;;8.98;3.60;;;;;;;12.83;74.12;98349.72;5436752;26;20110;-78
2022/05/15 01:41:31;;;;;;;6.85;3.33;;;;;;;12.71;73.97;98352.88;5436402;26;20800;-78
2022/05/15 01:43:58;;;;;;;12.05;4.00;;;;;;;12.81;73.51;98348.13;5436913;26;20074;-78
2022/05/15 01:46:27;;;;;;;8.73;3.95;;;;;;;12.28;75.95;98354.00;5416454;26;20129;-78
2022/05/15 01:48:55;;;;;;;10.02;4.05;;;;;;;12.22;77.33;98349.06;5436296;26;20055;-78
2022/05/15 01:51:23;;;;;;;9.10;3.95;;;;;;;11.92;78.62;98356.47;5436681;26;20071;-78
2022/05/15 01:53:50;;;;;;;8.85;4.07;;;;;;;12.07;77.86;98356.63;5436692;26;20058;-78
2022/05/15 01:56:18;;;;;;;10.73;3.75;;;;;;;11.95;78.31;98356.31;5436304;26;20055;-78
2022/05/15 01:58:45;;;;;;;13.10;4.78;;;;;;;11.83;79.53;98357.69;5437124;26;20118;-78
2022/05/15 02:01:12;;;;;;;11.98;4.18;;;;;;;12.42;77.48;98347.28;5437336;26;20107;-78
2022/05/15 02:03:39;;;;;;;10.75;4.05;;;;;;;12.32;78.02;98342.59;5437770;26;20050;-78
2022/05/15 02:06:05;;;;;;;10.30;3.97;;;;;;;12.46;77.41;98342.81;5437703;26;20440;-78
2022/05/15 02:08:34;;;;;;;9.15;4.30;;;;;;;12.40;77.26;98337.91;5437158;26;20074;-78
2022/05/15 02:11:01;;;;;;;10.15;3.70;;;;;;;12.36;77.30;98341.56;5437479;26;20059;-78
2022/05/15 02:13:28;;;;;;;7.55;3.78;;;;;;;12.50;76.43;98348.69;5437607;26;20115;-78
2022/05/15 02:15:55;;;;;;;11.10;4.10;;;;;;;12.78;74.94;98348.25;5437293;26;20147;-78
2022/05/15 02:18:23;;;;;;;7.65;3.75;;;;;;;12.74;75.23;98347.53;5437448;26;20166;-78
2022/05/15 02:20:50;;;;;;;9.15;4.25;;;;;;;12.40;76.31;98356.03;5437174;26;20098;-78
2022/05/15 02:23:17;;;;;;;;;;;;;;;12.07;78.14;98359.19;5437670;26;20047;-78
2022/05/15 02:25:44;;;;;;;8.50;3.83;;;;;;;12.27;76.66;98357.50;5437758;26;19966;-78
2022/05/15 02:28:11;;;;;;;9.00;3.90;;;;;;;11.77;78.60;98353.56;5437434;26;20416;-78
2022/05/15 02:30:38;;;;;;;8.45;3.72;;;;;;;12.02;77.53;98357.75;5437037;26;20513;-78
2022/05/15 02:33:05;;;;;;;9.23;4.00;;;;;;;11.73;77.82;98352.03;5437653;26;20122;-78
2022/05/15 02:35:33;;;;;;;8.27;3.78;;;;;;;12.04;76.98;98350.75;5437647;26;20366;-78
2022/05/15 02:38:00;;;;;;;9.55;3.90;;;;;;;12.07;76.62;98340.25;5437078;26;20059;-78
2022/05/15 02:40:27;;;;;;;9.77;4.22;;;;;;;12.50;75.13;98348.69;5437617;26;20066;-78
2022/05/15 02:42:56;;;;;;;7.75;3.85;;;;;;;12.04;76.72;98348.16;5437601;26;20103;-78
2022/05/15 02:45:24;;;;;;;9.43;4.12;;;;;;;11.44;79.11;98342.06;5437113;26;20375;-78
2022/05/15 02:47:51;;;;;;;7.93;3.83;;;;;;;11.59;78.41;98347.47;5437493;26;20090;-78
2022/05/15 02:53:04;;;;;;;10.40;4.07;;;;;;;11.28;79.16;98342.72;5437567;26;20457;-78
2022/05/15 02:55:32;;;;;;;9.57;4.43;;;;;;;11.53;79.37;98344.28;5437585;26;20445;-78
2022/05/15 02:57:59;;;;;;;8.90;3.95;;;;;;;11.40;80.15;98343.97;5416793;26;20050;-78
2022/05/15 03:00:27;;;;;;;9.38;4.47;;;;;;;11.01;81.87;98348.97;5437525;26;20047;-78
2022/05/15 03:02:54;;;;;;;9.55;4.20;;;;;;;11.74;79.00;98351.12;5417088;26;20099;-78
2022/05/15 03:05:27;;;;;;;10.43;4.30;;;;;;;11.39;80.18;98349.19;5417800;26;20055;-78
2022/05/15 03:07:54;;;;;;;10.30;4.62;;;;;;;11.19;81.33;98350.00;5437339;26;20525;-78
2022/05/15 03:10:22;;;;;;;11.30;4.37;;;;;;;11.43;80.59;98354.16;5436893;26;20118;-78
2022/05/15 03:12:50;;;;;;;9.77;4.28;;;;;;;11.43;80.61;98353.31;5437223;26;20062;-78
2022/05/15 03:15:19;;;;;;;13.45;4.15;;;;;;;11.80;79.30;98357.78;5437431;26;20114;-78
2022/05/15 03:17:46;;;;;;;10.93;3.95;;;;;;;11.33;81.39;98358.00;5437366;26;20126;-78
2022/05/15 03:20:15;;;;;;;9.30;4.15;;;;;;;11.90;79.62;98358.25;5436799;26;20066;-78
2022/05/15 03:22:43;;;;;;;9.20;3.90;;;;;;;12.31;77.06;98359.03;5437548;26;20057;-78
2022/05/15 03:25:10;;;;;;;10.23;3.50;;;;;;;12.41;76.25;98360.28;5437118;26;20097;-78
2022/05/15 03:27:37;;;;;;;9.70;3.87;;;;;;;12.44;75.48;98360.13;5437360;26;20058;-78
2022/05/15 03:30:05;;;;;;;9.95;4.00;;;;;;;12.20;76.97;98367.25;5437414;26;20060;-78
2022/05/15 03:32:33;;;;;;;8.30;4.10;;;;;;;12.02;77.50;98373.25;5436846;26;20126;-78
2022/05/15 03:35:00;;;;;;;8.25;3.97;;;;;;;11.76;78.72;98363.97;5437264;26;20154;-78
2022/05/15 03:37:26;;;;;;;9.13;3.87;;;;;;;12.19;76.62;98378.53;5437219;26;20463;-78
2022/05/15 03:39:54;;;;;;;10.30;3.97;;;;;;;12.31;77.16;98365.03;5437028;26;20047;-78
2022/05/15 03:42:21;;;;;;;9.27;4.00;;;;;;;12.65;75.65;98369.53;5437176;26;20047;-78
2022/05/15 03:44:48;;;;;;;8.38;3.47;;;;;;;12.59;76.18;98371.56;5437366;26;20460;-78
2022/05/15 03:47:15;;;;;;;7.70;3.55;;;;;;;13.17;73.90;98369.66;5436832;26;20514;-78
2022/05/15 03:49:42;;;;;;;8.75;3.40;;;;;;;13.53;72.23;98371.44;5437419;26;20051;-78
2022/05/15 03:52:09;;;;;;;6.30;3.05;;;;;;;13.83;69.98;98371.66;5437162;26;20501;-78
2022/05/15 03:54:36;;;;;;;9.85;3.10;;;;;;;14.09;69.19;98373.75;5436879;26;20077;-78
2022/05/15 03:57:04;;;;;;;6.97;3.10;;;;;;;14.74;67.03;98379.81;5437342;26;20397;-78
2022/05/15 03:59:34;;;;;;;7.80;2.95;;;;;;;15.01;65.64;98376.66;5437221;26;20121;-78
2022/05/15 04:02:03;;;;;;;5.47;2.80;;;;;;;14.99;65.62;98381.06;5416514;26;20362;-78
2022/05/15 04:04:30;;;;;;;7.37;3.00;;;;;;;15.19;65.04;98379.97;5417048;26;20142;-78
2022/05/15 04:07:01;;;;;;;7.43;3.00;;;;;;;15.51;63.96;98383.34;5437480;26;20121;-78
2022/05/15 04:09:29;;;;;;;7.90;2.90;;;;;;;15.91;62.84;98384.50;5416553;26;20115;-78
2022/05/15 04:11:56;;;;;;;7.18;2.85;;;;;;;16.47;60.86;98381.06;5436916;26;20110;-78
2022/05/15 04:14:23;;;;;;;5.72;2.70;;;;;;;17.26;58.28;98383.09;5436967;26;20054;-78
2022/05/15 04:16:53;;;;;;;7.60;2.92;;;;;;;17.76;56.11;98380.75;5437285;26;20159;-78
2022/05/15 04:19:19;;;;;;;7.07;2.75;;;;;;;18.50;54.29;98393.94;5436740;26;20065;-78
2022/05/15 04:21:46;;;;;;;7.72;2.80;;;;;;;18.82;52.75;98384.78;5436749;26;20103;-78
2022/05/15 04:24:15;;;;;;;5.30;2.60;;;;;;;19.53;50.51;98394.44;5437234;26;20094;-78
2022/05/15 04:26:43;;;;;;;4.43;2.35;;;;;;;20.30;48.85;98402.63;5437171;26;20385;-78
2022/05/15 04:29:11;;;;;;;7.55;2.58;;;;;;;20.69;47.65;98396.94;5436594;26;20073;-78
2022/05/15 04:31:38;;;;;;;7.47;2.50;;;;;;;21.14;46.81;98396.03;5416654;26;20130;-78
2022/05/15 04:34:05;;;;;;;5.20;2.28;;;;;;;21.49;46.11;98403.75;5416984;26;20357;-78
2022/05/15 04:36:34;;;;;;;7.05;2.28;;;;;;;22.30;44.21;98404.84;5436837;26;20122;-78
2022/05/15 04:39:01;;;;;;;4.87;2.30;;;;;;;22.27;44.01;98405.12;5436918;26;20118;-78
2022/05/15 04:41:29;;;;;;;5.15;2.17;;;;;;;23.13;42.97;98401.19;5437388;26;20556;-78
2022/05/15 04:43:56;;;;;;;8.52;2.95;;;;;;;23.46;42.34;98395.53;5436875;26;20103;-78
2022/05/15 04:46:26;;;;;;;6.37;2.35;;;;;;;24.19;40.92;98402.00;5416830;26;20125;-79
2022/05/15 04:48:52;;;;;;;6.65;2.28;;;;;;;24.41;40.11;98400.87;5436802;26;20059;-79
2022/05/15 04:51:19;;;;;;;4.95;2.25;;;;;;;24.26;40.76;98402.28;5436646;26;20102;-78
2022/05/15 04:53:46;;;;;;;5.80;2.30;;;;;;;24.31;41.08;98405.34;5437143;26;20126;-79
2022/05/15 04:56:13;;;;;;;6.43;2.42;;;;;;;24.76;40.05;98410.72;5437268;26;20059;-79
2022/05/15 04:58:40;;;;;;;4.80;2.37;;;;;;;25.17;39.35;98410.38;5436580;26;20119;-79
2022/05/15 05:01:07;;;;;;;7.00;2.55;;;;;;;25.85;37.88;98416.03;5436970;26;20118;-79
2022/05/15 05:03:34;;;;;;;4.97;2.40;;;;;;;26.28;37.57;98420.47;5436797;26;20119;-79
2022/05/15 05:06:02;;;;;;;6.43;2.72;;;;;;;26.38;37.30;98428.34;5437091;26;20058;-79
2022/05/15 05:08:29;;;;;;;18.62;2.92;;;;;;;27.36;35.72;98432.25;5436823;26;20432;-79
2022/05/15 05:10:56;;;;;;;7.75;2.22;;;;;;;27.76;34.66;98428.84;5436544;26;20052;-79
2022/05/15 05:13:23;;;;;;;5.82;2.30;;;;;;;28.25;34.42;98434.12;5437005;26;20433;-79
2022/05/15 05:15:50;;;;;;;4.93;2.20;;;;;;;28.75;33.55;98441.00;5437067;26;20066;-79
2022/05/15 05:18:18;;;;;;;5.80;2.35;;;;;;;29.44;33.12;98439.34;5436445;26;20118;-79
2022/05/15 05:20:46;;;;;;;5.35;2.35;;;;;;;30.33;32.12;98439.72;5436563;26;20086;-79
2022/05/15 05:23:13;;;;;;;6.05;2.20;;;;;;;30.95;30.93;98444.72;5437027;26;20108;-79
2022/05/15 05:25:40;;;;;;;6.40;2.35;;;;;;;32.00;29.78;98441.56;5436485;26;20393;-79
2022/05/15 05:28:07;;;;;;;6.87;2.50;;;;;;;32.19;29.86;98444.41;5416451;26;20429;-79
2022/05/15 05:30:34;;;;;;;5.07;2.20;;;;;;;33.15;28.81;98452.63;5416380;26;20047;-79
2022/05/15 05:33:01;;;;;;;6.68;2.30;;;;;;;33.19;27.91;98453.06;5436004;26;20081;-79
2022/05/15 05:35:29;;;;;;;6.93;2.22;;;;;;;33.43;28.05;98449.06;5436934;26;20055;-79
2022/05/15 05:37:56;;;;;;;7.60;2.47;;;;;;;33.48;27.43;98455.44;5436574;26;20138;-79
2022/05/15 05:40:23;;;;;;;3.97;2.15;;;;;;;33.65;27.43;98450.53;5436315;26;20099;-79
2022/05/15 05:42:50;;;;;;;6.00;2.42;;;;;;;34.05;26.72;98455.97;5436812;26;20051;-79
2022/05/15 05:45:17;;;;;;;5.28;2.40;;;;;;;34.43;26.05;98459.66;5436982;26;20054;-79
2022/05/15 05:47:46;;;;;;;6.10;2.55;;;;;;;34.17;26.07;98454.31;5436378;26;20801;-79
2022/05/15 05:50:15;;;;;;;5.12;2.15;;;;;;;33.14;27.50;98459.00;5436828;26;20047;-79
2022/05/15 05:52:42;;;;;;;5.53;2.40;;;;;;;32.52;28.36;98458.03;5436434;26;20069;-79
2022/05/15 05:55:12;;;;;;;6.32;2.40;;;;;;;31.80;30.03;98450.25;5436890;26;20060;-79
2022/05/15 05:57:40;;;;;;;5.72;2.20;;;;;;;31.61;30.31;98451.66;5436624;26;20054;-79
2022/05/15 06:00:11;;;;;;;7.43;2.45;;;;;;;31.07;29.82;98449.41;5436342;26;20070;-79
2022/05/15 06:02:39;;;;;;;8.90;2.75;;;;;;;30.84;30.36;98447.84;5436638;26;20077;-79
2022/05/15 06:05:07;;;;;;;8.88;2.72;;;;;;;30.80;31.16;98450.88;5416508;26;20059;-79
2022/05/15 06:07:34;;;;;;;9.80;2.95;;;;;;;31.16;30.55;98450.12;5436215;26;20039;-79
2022/05/15 06:10:03;;;;;;;7.45;2.90;;;;;;;31.36;30.27;98453.03;5436665;26;20118;-79
2022/05/15 06:12:30;;;;;;;6.55;3.05;;;;;;;31.55;29.98;98451.59;5436525;26;20071;-79
2022/05/15 06:14:57;;;;;;;5.78;2.50;;;;;;;31.55;30.71;98454.25;5436235;26;20125;-79
2022/05/15 06:17:26;;;;;;;8.90;2.83;;;;;;;31.41;31.96;98457.81;5436526;26;20082;-79
2022/05/15 06:19:54;;;;;;;5.32;2.50;;;;;;;30.11;34.56;98449.41;5436344;26;20413;-79
2022/05/15 06:22:21;;;;;;;7.95;2.37;;;;;;;29.64;32.49;98448.56;5436287;26;20047;-79
2022/05/15 06:24:48;;;;;;;6.12;2.70;;;;;;;29.52;31.20;98451.81;5436751;26;20075;-79
2022/05/15 06:27:15;;;;;;;6.45;2.42;;;;;;;28.43;32.32;98455.19;5436405;26;20106;-79
2022/05/15 06:29:42;;;;;;;7.57;2.58;;;;;;;27.90;33.00;98449.41;5436190;26;20065;-79
2022/05/15 06:32:10;;;;;;;5.12;2.60;;;;;;;27.60;33.86;98457.94;5436279;26;20114;-79
2022/05/15 06:34:37;;;;;;;5.80;2.20;;;;;;;27.24;34.19;98457.38;5436219;26;20063;-79
2022/05/15 06:37:04;;;;;;;8.23;2.25;;;;;;;26.70;35.88;98456.81;5436569;26;20047;-79
2022/05/15 06:39:31;;;;;;;8.85;2.75;;;;;;;27.38;34.46;98457.59;5436471;26;20048;-79
2022/05/15 06:42:00;;;;;;;3.90;2.28;;;;;;;27.58;35.03;98460.78;5436012;26;20067;-79
2022/05/15 06:44:27;;;;;;;7.43;2.35;;;;;;;27.51;33.89;98461.56;5436977;26;20055;-79
2022/05/15 06:46:55;;;;;;;4.47;2.33;;;;;;;27.73;33.48;98452.19;5437636;26;20382;-79
2022/05/15 06:49:22;;;;;;;7.65;2.35;;;;;;;27.93;33.74;98451.72;5416873;26;20099;-79
2022/05/15 06:51:49;;;;;;;5.87;2.30;;;;;;;28.35;33.10;98455.19;5437285;26;20456;-79
2022/05/15 06:54:16;;;;;;;10.05;2.50;;;;;;;28.29;32.62;98456.72;5437683;26;20062;-79
2022/05/15 06:59:29;;;;;;;8.60;2.60;;;;;;;27.56;34.07;98452.16;5420231;26;20047;-79
2022/05/15 07:01:56;;;;;;;3.80;2.05;;;;;;;27.94;32.83;98444.59;5437455;26;20060;-79
2022/05/15 07:04:23;;;;;;;5.87;2.20;;;;;;;27.89;32.69;98461.00;5437276;26;20051;-79
2022/05/15 07:06:50;;;;;;;5.45;2.33;;;;;;;27.67;35.43;98459.00;5437515;26;20095;-79
2022/05/15 07:09:17;;;;;;;6.97;2.60;;;;;;;28.41;31.92;98465.16;5437320;26;20047;-79
2022/05/15 07:11:44;;;;;;;7.95;2.42;;;;;;;28.99;33.76;98467.50;5436930;26;20457;-79
2022/05/15 07:14:11;;;;;;;5.37;2.12;;;;;;;29.22;31.25;98461.41;5437546;26;20086;-79
2022/05/15 07:16:40;;;;;;;6.57;2.20;;;;;;;29.72;31.03;98465.47;5437445;26;20055;-79
2022/05/15 07:19:07;;;;;;;5.35;2.20;;;;;;;29.93;30.93;98460.34;5437206;26;20366;-79
2022/05/15 07:21:34;;;;;;;7.00;2.45;;;;;;;29.95;29.03;98461.81;5437224;26;20130;-79
2022/05/15 07:24:01;;;;;;;6.43;2.25;;;;;;;29.65;29.26;98466.16;5437344;26;20095;-79
2022/05/15 07:26:28;;;;;;;5.57;2.10;;;;;;;30.16;29.66;98460.34;5437506;26;20130;-79
2022/05/15 07:28:55;;;;;;;5.70;2.45;;;;;;;29.88;28.00;98458.22;5437206;26;20051;-79
2022/05/15 07:31:22;;;;;;;6.45;2.60;;;;;;;29.46;28.41;98455.16;5437049;26;20118;-79
2022/05/15 07:33:52;;;;;;;7.35;2.62;;;;;;;29.75;30.14;98460.63;5437485;26;20366;-79
2022/05/15 07:36:19;;;;;;;8.23;2.30;;;;;;;30.04;28.83;98456.41;5437471;26;20106;-79
2022/05/15 07:38:46;;;;;;;7.43;2.30;;;;;;;29.79;29.59;98456.63;5436818;26;20053;-79
2022/05/15 07:41:14;;;;;;;5.32;1.98;;;;;;;30.07;28.59;98456.91;5437278;26;20110;-79
2022/05/15 07:43:41;;;;;;;4.47;2.05;;;;;;;29.67;28.28;98458.03;5437571;26;20374;-79
2022/05/15 07:46:08;;;;;;;6.30;2.42;;;;;;;29.95;27.21;98455.66;5437090;26;20048;-79
2022/05/15 07:48:36;;;;;;;6.35;2.10;;;;;;;29.95;26.95;98464.47;5437238;26;20310;-79
2022/05/15 07:51:03;;;;;;;6.80;1.92;;;;;;;30.15;27.69;98459.50;5437045;26;20407;-78
2022/05/15 07:53:30;;;;;;;5.97;2.25;;;;;;;29.44;27.22;98452.66;5436843;26;20094;-79
2022/05/15 07:56:09;;;;;;;8.73;2.37;;;;;;;29.40;28.83;98446.03;5416711;26;20125;-79
2022/05/15 07:58:37;;;;;;;6.65;2.30;;;;;;;29.84;28.66;98456.06;5437400;26;20501;-79
2022/05/15 08:01:05;;;;;;;6.47;2.28;;;;;;;29.72;28.59;98452.19;5436877;26;20127;-79
2022/05/15 08:03:37;;;;;;;4.65;2.20;;;;;;;30.73;26.85;98451.78;5417027;26;20118;-79
2022/05/15 08:08:51;;;;;;;8.93;2.45;;;;;;;30.73;26.88;98449.97;5437114;26;20095;-79
2022/05/15 08:11:18;;;;;;;7.20;2.12;;;;;;;30.59;26.62;98453.41;5431672;26;143802;-79
2022/05/15 08:13:45;;;;;;;5.95;2.10;;;;;;;30.33;26.80;98455.69;5436902;26;20363;-79
2022/05/15 08:16:12;;;;;;;7.03;2.28;;;;;;;30.10;26.80;98450.44;5437323;26;20114;-79
2022/05/15 08:24:10;;;;;;;5.32;2.10;;;;;;;30.40;28.55;98461.94;5437321;26;20351;-79
2022/05/15 08:26:37;;;;;;;5.07;1.80;;;;;;;30.89;24.87;98461.44;5437327;26;20047;-79
2022/05/15 08:29:04;;;;;;;8.07;2.15;;;;;;;30.51;25.45;98459.66;5436622;26;20059;-79
2022/05/15 08:31:31;;;;;;;6.87;2.28;;;;;;;30.46;25.86;98455.91;5437027;26;20373;-79
2022/05/15 08:33:58;;;;;;;5.40;1.90;;;;;;;31.00;25.43;98460.97;5436915;26;20055;-80
2022/05/15 08:36:25;;;;;;;7.00;2.05;;;;;;;30.55;27.62;98460.13;5437304;26;20043;-79
2022/05/15 08:38:52;;;;;;;6.28;2.10;;;;;;;30.93;26.63;98463.53;5437046;26;20051;-79
2022/05/15 08:41:40;;;;;;;7.10;1.98;;;;;;;30.96;25.45;98463.19;5436790;26;20115;-79
2022/05/15 08:44:22;;;;;;;6.05;2.20;;;;;;;29.85;26.78;98463.06;5417131;26;20130;-79
2022/05/15 08:46:49;;;;;;;4.82;2.00;;;;;;;30.59;24.17;98466.72;5437481;26;20046;-79
2022/05/15 08:49:41;;;;;;;7.25;1.90;;;;;;;31.06;23.73;98460.25;5437080;26;20131;-79
2022/05/15 08:52:09;;;;;;;4.03;1.83;;;;;;;32.32;22.83;98466.91;5437086;26;20431;-79
2022/05/15 08:54:42;;;;;;;6.12;1.90;;;;;;;32.60;23.18;98462.37;5416802;26;20131;-79
2022/05/15 08:57:22;;;;;;;6.75;2.05;;;;;;;32.92;22.56;98466.31;5416542;26;20106;-79
2022/05/15 08:59:54;;;;;;;5.60;1.77;;;;;;;32.82;23.00;98465.81;5437122;26;20106;-79
2022/05/15 09:02:23;;;;;;;5.10;1.77;;;;;;;33.28;23.40;98468.72;5416315;26;20397;-79
2022/05/15 09:04:54;;;;;;;4.80;1.85;;;;;;;33.12;21.44;98468.25;5416885;26;20073;-79
2022/05/15 09:07:37;;;;;;;5.90;2.05;;;;;;;32.44;20.90;98460.87;5436441;26;20057;-80
2022/05/15 09:10:33;;;;;;;6.15;2.00;;;;;;;31.64;23.01;98445.94;5436580;26;20053;-79
2022/05/15 09:13:30;;;;;;;6.25;2.00;;;;;;;31.89;24.40;98453.59;5416753;26;20090;-79
2022/05/15 09:16:00;;;;;;;6.50;2.30;;;;;;;30.13;27.05;98463.38;5416682;26;20528;-79
2022/05/15 09:18:28;;;;;;;5.18;1.98;;;;;;;29.44;27.49;98451.81;5436924;26;20066;-79
2022/05/15 09:21:07;;;;;;;5.50;1.90;;;;;;;30.28;25.50;98460.72;5436552;26;20039;-79
2022/05/15 09:23:53;;;;;;;5.62;1.90;;;;;;;29.82;26.75;98453.59;5436576;26;20086;-79
2022/05/15 09:26:29;;;;;;;4.40;1.90;;;;;;;31.04;25.35;98456.91;5437201;26;20402;-79
2022/05/15 09:29:01;;;;;;;4.95;2.00;;;;;;;31.32;23.12;98460.56;5436883;26;20714;-79
2022/05/15 09:31:34;;;;;;;5.05;2.12;;;;;;;31.54;23.00;98466.75;5436412;26;20047;-79
2022/05/15 09:34:05;;;;;;;5.05;1.90;;;;;;;31.49;23.81;98458.53;5437034;26;20094;-79
2022/05/15 09:36:42;;;;;;;4.70;1.85;;;;;;;31.75;23.97;98459.81;5416812;26;20113;-79
2022/05/15 09:39:16;;;;;;;5.22;2.00;;;;;;;31.32;24.25;98460.56;5436328;26;20082;-79
2022/05/15 09:44:34;;;;;;;4.12;2.05;;;;;;;31.29;24.08;98455.63;5419325;26;20072;-79
2022/05/15 09:47:21;;;;;;;2.92;1.80;;;;;;;30.86;25.28;98465.31;5416579;26;20134;-79
2022/05/15 09:49:48;;;;;;;6.68;2.00;;;;;;;31.56;25.37;98450.56;5436526;26;20130;-79
2022/05/15 09:52:39;;;;;;;5.28;1.90;;;;;;;31.87;23.73;98443.12;5436125;26;20137;-79
2022/05/15 09:55:22;;;;;;;6.70;2.12;;;;;;;32.02;23.87;98450.25;5405279;26;20083;-79
2022/05/15 09:57:58;;;;;;;6.72;2.20;;;;;;;31.90;24.42;98449.91;5416515;26;20117;-79
2022/05/15 10:00:27;;;;;;;3.95;2.08;;;;;;;31.94;24.19;98446.69;5436193;26;20113;-79
2022/05/15 10:03:03;;;;;;;5.37;1.90;;;;;;;32.16;23.80;98442.12;5436742;26;20057;-79
2022/05/15 10:05:33;;;;;;;6.20;1.85;;;;;;;32.24;23.37;98441.16;5416978;26;20115;-79
2022/05/15 10:08:01;;;;;;;6.43;2.10;;;;;;;32.37;22.83;98443.97;5436851;26;20110;-79
2022/05/15 10:10:37;;;;;;;5.72;2.03;;;;;;;31.90;24.69;98439.22;5436575;26;20102;-79
2022/05/15 10:13:10;;;;;;;4.57;1.85;;;;;;;31.52;24.36;98441.31;5436113;26;20429;-79
2022/05/15 10:15:44;;;;;;;7.12;2.20;;;;;;;31.75;25.78;98441.16;5416157;26;20107;-79
2022/05/15 10:18:16;;;;;;;7.53;2.20;;;;;;;31.13;25.85;98437.16;5416509;26;20427;-79
2022/05/15 10:20:44;;;;;;;10.27;2.42;;;;;;;31.05;25.75;98439.91;5436961;26;22073;-79
2022/05/15 10:23:14;;;;;;;4.37;2.00;;;;;;;31.02;25.71;98443.78;5437653;26;20385;-79
2022/05/15 10:25:48;;;;;;;5.57;1.92;;;;;;;31.30;25.46;98446.63;5437833;26;20071;-79
2022/05/15 10:28:37;;;;;;;4.20;1.80;;;;;;;31.77;23.89;98444.44;5437128;26;20055;-79
2022/05/15 10:31:22;;;;;;;7.03;2.40;;;;;;;32.42;23.06;98444.19;5437610;26;20062;-79
2022/05/15 10:33:56;;;;;;;7.07;2.10;;;;;;;32.90;24.25;98443.47;5437317;26;20106;-79
2022/05/15 10:37:12;;;;;;;3.05;1.85;;;;;;;33.01;24.89;98442.91;5417474;26;20118;-79
2022/05/15 10:40:07;;;;;;;3.78;1.70;;;;;;;32.88;21.78;98438.34;5349651;26;20475;-79
2022/05/15 10:42:58;;;;;;;5.03;1.85;;;;;;;32.83;22.19;98435.41;5437053;26;20452;-79
2022/05/15 10:45:45;;;;;;;5.00;2.20;;;;;;;32.30;23.18;98432.41;5437675;26;20055;-79
2022/05/15 10:48:51;;;;;;;4.47;1.90;;;;;;;32.12;22.98;98429.38;5417467;26;20710;-79
2022/05/15 10:51:24;;;;;;;4.75;2.05;;;;;;;32.28;23.08;98420.25;5437499;26;20115;-79
2022/05/15 10:57:29;;;;;;;5.55;1.90;;;;;;;31.93;23.08;98414.84;5437647;26;20047;-79
2022/05/15 11:00:15;;;;;;;5.87;2.30;;;;;;;31.99;22.52;98418.56;5416574;26;20138;-79
2022/05/15 11:03:14;;;;;;;5.12;1.92;;;;;;;31.95;23.06;98418.97;5416705;26;20091;-79
2022/05/15 11:06:09;;;;;;;5.75;2.10;;;;;;;31.42;24.50;98412.28;5437607;26;20099;-79
2022/05/15 11:09:02;;;;;;;4.05;1.98;;;;;;;30.89;24.64;98424.16;5436994;26;20106;-79
2022/05/15 11:11:48;;;;;;;6.68;2.50;;;;;;;31.28;26.01;98415.84;5416950;26;20123;-79
2022/05/15 11:14:31;;;;;;;8.90;2.20;;;;;;;31.16;25.91;98404.81;5437810;26;20103;-79
2022/05/15 11:17:02;;;;;;;5.85;2.25;;;;;;;31.29;26.13;98401.50;5416894;26;20077;-79
2022/05/15 11:19:35;;;;;;;5.55;2.33;;;;;;;30.72;26.52;98400.34;5437319;26;20087;-79
2022/05/15 11:22:06;;;;;;;4.90;1.90;;;;;;;30.36;26.12;98404.75;5437216;26;20405;-79
2022/05/15 11:25:03;;;;;;;5.35;2.35;;;;;;;30.47;26.70;98402.47;5416748;26;20059;-79
2022/05/15 11:27:42;;;;;;;5.20;2.40;;;;;;;30.67;25.23;98402.75;5437336;26;20413;-79
2022/05/15 11:30:22;;;;;;;5.18;2.50;;;;;;;31.25;26.72;98395.69;5436907;26;20127;-79
2022/05/15 11:32:52;;;;;;;5.93;2.45;;;;;;;30.78;25.44;98402.28;5417668;26;20417;-79
2022/05/15 11:35:19;;;;;;;8.63;2.40;;;;;;;30.67;25.50;98399.28;5437524;26;20413;-79
2022/05/15 11:38:06;;;;;;;5.75;2.20;;;;;;;30.83;26.25;98396.41;5436844;26;20421;-79
2022/05/15 11:40:36;;;;;;;4.85;2.15;;;;;;;30.61;27.65;98392.81;5437366;26;20047;-79
2022/05/15 11:43:30;;;;;;;7.62;2.40;;;;;;;30.76;27.66;98383.00;5437438;26;20085;-79
2022/05/15 11:45:59;;;;;;;6.32;2.55;;;;;;;30.46;27.33;98386.66;5437393;26;20138;-79
2022/05/15 11:48:39;;;;;;;7.07;2.40;;;;;;;30.38;27.54;98384.09;5437251;26;20051;-79
2022/05/15 11:51:12;;;;;;;6.55;2.60;;;;;;;30.05;28.68;98378.25;5436939;26;20107;-79
2022/05/15 11:54:02;;;;;;;5.10;2.30;;;;;;;29.97;27.81;98379.16;5437392;26;20417;-79
2022/05/15 11:57:01;;;;;;;7.07;2.40;;;;;;;30.28;26.92;98381.69;5417162;26;20062;-79
2022/05/15 11:59:31;;;;;;;5.93;2.20;;;;;;;30.29;28.54;98383.34;5398061;26;20460;-79
2022/05/15 12:02:31;;;;;;;7.35;2.50;;;;;;;29.93;28.25;98372.53;5437398;26;20416;-79
2022/05/15 12:05:23;;;;;;;5.75;2.50;;;;;;;30.13;28.17;98379.03;5407917;26;20063;-79
2022/05/15 12:08:07;;;;;;;8.75;2.78;;;;;;;29.78;27.64;98377.03;5437362;26;20086;-79
2022/05/15 12:10:34;;;;;;;8.15;2.72;;;;;;;29.40;28.64;98371.63;5437191;26;20059;-79